sensor_id;sensor_type;location;lat;lon;timestamp;temperature;humidity
40638;DHT22;26336;44.696;10.622;2023-08-21T00:01:08;28.60;92.70
40638;DHT22;26336;44.696;10.622;2023-08-21T00:04:12;28.60;92.70
40638;DHT22;26336;44.696;10.622;2023-08-21T00:07:16;28.60;92.70
40638;DHT22;26336;44.696;10.622;2023-08-21T00:10:20;28.60;92.70
40638;DHT22;26336;44.696;10.622;2023-08-21T00:13:24;28.60;92.70
40638;DHT22;26336;44.696;10.622;2023-08-21T00:16:28;28.50;92.50
40638;DHT22;26336;44.696;10.622;2023-08-21T00:19:33;28.50;92.60
40638;DHT22;26336;44.696;10.622;2023-08-21T00:22:37;28.50;92.70
40638;DHT22;26336;44.696;10.622;2023-08-21T00:25:45;28.50;92.80
40638;DHT22;26336;44.696;10.622;2023-08-21T00:28:49;28.50;92.80
40638;DHT22;26336;44.696;10.622;2023-08-21T00:31:53;28.40;92.90
40638;DHT22;26336;44.696;10.622;2023-08-21T00:34:59;28.40;92.80
40638;DHT22;26336;44.696;10.622;2023-08-21T00:38:04;28.30;92.80
40638;DHT22;26336;44.696;10.622;2023-08-21T00:41:08;28.30;92.80
40638;DHT22;26336;44.696;10.622;2023-08-21T00:44:12;28.30;92.90
40638;DHT22;26336;44.696;10.622;2023-08-21T00:47:16;28.30;92.80
40638;DHT22;26336;44.696;10.622;2023-08-21T00:50:20;28.20;92.70
40638;DHT22;26336;44.696;10.622;2023-08-21T00:53:25;28.20;92.80
40638;DHT22;26336;44.696;10.622;2023-08-21T00:56:29;28.20;92.80
40638;DHT22;26336;44.696;10.622;2023-08-21T00:59:34;28.10;92.80
40638;DHT22;26336;44.696;10.622;2023-08-21T01:02:38;28.10;92.90
40638;DHT22;26336;44.696;10.622;2023-08-21T01:05:41;28.10;92.80
40638;DHT22;26336;44.696;10.622;2023-08-21T01:09:43;28.10;92.80
40638;DHT22;26336;44.696;10.622;2023-08-21T01:15:36;28.00;93.00
40638;DHT22;26336;44.696;10.622;2023-08-21T01:18:42;28.00;93.10
40638;DHT22;26336;44.696;10.622;2023-08-21T01:21:47;28.00;93.10
40638;DHT22;26336;44.696;10.622;2023-08-21T01:24:52;28.00;93.20
40638;DHT22;26336;44.696;10.622;2023-08-21T01:27:56;28.00;93.20
40638;DHT22;26336;44.696;10.622;2023-08-21T01:31:16;27.90;93.10
40638;DHT22;26336;44.696;10.622;2023-08-21T01:34:22;27.90;93.10
40638;DHT22;26336;44.696;10.622;2023-08-21T01:37:26;27.90;93.20
40638;DHT22;26336;44.696;10.622;2023-08-21T01:40:32;27.90;93.20
40638;DHT22;26336;44.696;10.622;2023-08-21T01:43:37;27.80;93.30
40638;DHT22;26336;44.696;10.622;2023-08-21T01:46:41;27.80;93.40
40638;DHT22;26336;44.696;10.622;2023-08-21T01:49:46;27.70;93.50
40638;DHT22;26336;44.696;10.622;2023-08-21T01:52:50;27.70;93.60
40638;DHT22;26336;44.696;10.622;2023-08-21T01:55:54;27.70;93.60
40638;DHT22;26336;44.696;10.622;2023-08-21T01:58:58;27.70;93.70
40638;DHT22;26336;44.696;10.622;2023-08-21T02:02:02;27.70;93.70
40638;DHT22;26336;44.696;10.622;2023-08-21T02:05:06;27.70;93.70
40638;DHT22;26336;44.696;10.622;2023-08-21T02:08:13;27.70;93.70
40638;DHT22;26336;44.696;10.622;2023-08-21T02:11:18;27.70;93.80
40638;DHT22;26336;44.696;10.622;2023-08-21T02:14:22;27.70;93.90
40638;DHT22;26336;44.696;10.622;2023-08-21T02:17:30;27.70;94.00
40638;DHT22;26336;44.696;10.622;2023-08-21T02:20:33;27.70;94.10
40638;DHT22;26336;44.696;10.622;2023-08-21T02:23:37;27.60;94.00
40638;DHT22;26336;44.696;10.622;2023-08-21T02:26:41;27.60;94.10
40638;DHT22;26336;44.696;10.622;2023-08-21T02:29:47;27.60;94.40
40638;DHT22;26336;44.696;10.622;2023-08-21T02:32:52;27.50;94.60
40638;DHT22;26336;44.696;10.622;2023-08-21T02:35:56;27.50;94.70
40638;DHT22;26336;44.696;10.622;2023-08-21T02:39:00;27.50;94.90
40638;DHT22;26336;44.696;10.622;2023-08-21T02:42:04;27.40;94.90
40638;DHT22;26336;44.696;10.622;2023-08-21T02:45:08;27.40;95.00
40638;DHT22;26336;44.696;10.622;2023-08-21T02:48:13;27.40;95.00
40638;DHT22;26336;44.696;10.622;2023-08-21T02:51:16;27.40;95.10
40638;DHT22;26336;44.696;10.622;2023-08-21T02:54:20;27.40;95.20
40638;DHT22;26336;44.696;10.622;2023-08-21T02:57:26;27.30;95.20
40638;DHT22;26336;44.696;10.622;2023-08-21T03:00:31;27.30;95.10
40638;DHT22;26336;44.696;10.622;2023-08-21T03:03:35;27.30;95.20
40638;DHT22;26336;44.696;10.622;2023-08-21T03:06:40;27.30;95.10
40638;DHT22;26336;44.696;10.622;2023-08-21T03:09:46;27.30;95.20
40638;DHT22;26336;44.696;10.622;2023-08-21T03:12:55;27.10;95.20
40638;DHT22;26336;44.696;10.622;2023-08-21T03:15:59;27.00;95.30
40638;DHT22;26336;44.696;10.622;2023-08-21T03:19:04;27.10;95.50
40638;DHT22;26336;44.696;10.622;2023-08-21T03:22:09;27.10;95.30
40638;DHT22;26336;44.696;10.622;2023-08-21T03:25:14;27.10;95.30
40638;DHT22;26336;44.696;10.622;2023-08-21T03:28:18;27.10;95.30
40638;DHT22;26336;44.696;10.622;2023-08-21T03:31:22;27.10;95.40
40638;DHT22;26336;44.696;10.622;2023-08-21T03:34:26;27.10;95.50
40638;DHT22;26336;44.696;10.622;2023-08-21T03:37:35;27.10;95.50
40638;DHT22;26336;44.696;10.622;2023-08-21T03:40:39;27.10;95.50
40638;DHT22;26336;44.696;10.622;2023-08-21T03:43:43;27.10;95.50
40638;DHT22;26336;44.696;10.622;2023-08-21T03:46:47;27.00;95.60
40638;DHT22;26336;44.696;10.622;2023-08-21T03:49:54;27.10;95.70
40638;DHT22;26336;44.696;10.622;2023-08-21T03:53:00;27.00;95.70
40638;DHT22;26336;44.696;10.622;2023-08-21T03:56:06;27.00;95.70
40638;DHT22;26336;44.696;10.622;2023-08-21T03:59:11;27.00;95.70
40638;DHT22;26336;44.696;10.622;2023-08-21T04:02:15;27.00;95.60
40638;DHT22;26336;44.696;10.622;2023-08-21T04:05:19;27.00;95.60
40638;DHT22;26336;44.696;10.622;2023-08-21T04:08:23;27.00;95.70
40638;DHT22;26336;44.696;10.622;2023-08-21T04:11:27;26.90;95.80
40638;DHT22;26336;44.696;10.622;2023-08-21T04:14:32;26.90;95.80
40638;DHT22;26336;44.696;10.622;2023-08-21T04:17:36;26.90;95.90
40638;DHT22;26336;44.696;10.622;2023-08-21T04:20:41;26.90;96.10
40638;DHT22;26336;44.696;10.622;2023-08-21T04:23:45;26.80;96.20
40638;DHT22;26336;44.696;10.622;2023-08-21T04:26:49;26.80;96.30
40638;DHT22;26336;44.696;10.622;2023-08-21T04:29:53;26.80;96.30
40638;DHT22;26336;44.696;10.622;2023-08-21T04:32:57;26.80;96.20
40638;DHT22;26336;44.696;10.622;2023-08-21T04:36:03;26.70;96.20
40638;DHT22;26336;44.696;10.622;2023-08-21T04:39:07;26.70;96.30
40638;DHT22;26336;44.696;10.622;2023-08-21T04:42:11;26.70;96.30
40638;DHT22;26336;44.696;10.622;2023-08-21T04:45:15;26.70;96.30
40638;DHT22;26336;44.696;10.622;2023-08-21T04:48:21;26.60;96.30
40638;DHT22;26336;44.696;10.622;2023-08-21T04:51:27;26.60;96.40
40638;DHT22;26336;44.696;10.622;2023-08-21T04:54:31;26.50;96.60
40638;DHT22;26336;44.696;10.622;2023-08-21T04:57:35;26.50;96.60
40638;DHT22;26336;44.696;10.622;2023-08-21T05:00:44;26.50;96.70
40638;DHT22;26336;44.696;10.622;2023-08-21T05:03:48;26.60;96.80
40638;DHT22;26336;44.696;10.622;2023-08-21T05:06:52;26.50;96.70
40638;DHT22;26336;44.696;10.622;2023-08-21T05:09:59;26.60;96.70
40638;DHT22;26336;44.696;10.622;2023-08-21T05:13:06;26.60;96.80
40638;DHT22;26336;44.696;10.622;2023-08-21T05:19:25;26.60;96.80
40638;DHT22;26336;44.696;10.622;2023-08-21T05:22:30;26.60;96.90
40638;DHT22;26336;44.696;10.622;2023-08-21T05:25:36;26.60;97.00
40638;DHT22;26336;44.696;10.622;2023-08-21T05:28:42;26.60;97.00
40638;DHT22;26336;44.696;10.622;2023-08-21T05:31:47;26.60;96.90
40638;DHT22;26336;44.696;10.622;2023-08-21T05:34:51;26.60;96.90
40638;DHT22;26336;44.696;10.622;2023-08-21T05:37:59;26.60;97.00
40638;DHT22;26336;44.696;10.622;2023-08-21T05:41:03;26.60;96.90
40638;DHT22;26336;44.696;10.622;2023-08-21T05:44:08;26.60;96.90
40638;DHT22;26336;44.696;10.622;2023-08-21T05:47:12;26.60;96.90
40638;DHT22;26336;44.696;10.622;2023-08-21T05:50:16;26.60;97.00
40638;DHT22;26336;44.696;10.622;2023-08-21T05:53:20;26.60;97.00
40638;DHT22;26336;44.696;10.622;2023-08-21T05:56:24;26.70;97.10
40638;DHT22;26336;44.696;10.622;2023-08-21T05:59:31;26.70;97.20
40638;DHT22;26336;44.696;10.622;2023-08-21T06:02:37;26.70;97.20
40638;DHT22;26336;44.696;10.622;2023-08-21T06:05:42;26.70;97.20
40638;DHT22;26336;44.696;10.622;2023-08-21T06:08:50;26.70;97.30
40638;DHT22;26336;44.696;10.622;2023-08-21T06:11:54;26.80;97.40
40638;DHT22;26336;44.696;10.622;2023-08-21T06:14:58;26.80;97.40
40638;DHT22;26336;44.696;10.622;2023-08-21T06:18:02;26.80;97.40
40638;DHT22;26336;44.696;10.622;2023-08-21T06:21:07;26.80;97.40
40638;DHT22;26336;44.696;10.622;2023-08-21T06:24:13;26.80;97.40
40638;DHT22;26336;44.696;10.622;2023-08-21T06:27:22;26.80;97.40
40638;DHT22;26336;44.696;10.622;2023-08-21T06:30:31;26.90;97.30
40638;DHT22;26336;44.696;10.622;2023-08-21T06:33:36;26.90;97.20
40638;DHT22;26336;44.696;10.622;2023-08-21T06:36:40;26.90;97.10
40638;DHT22;26336;44.696;10.622;2023-08-21T06:39:44;26.90;97.00
40638;DHT22;26336;44.696;10.622;2023-08-21T06:42:48;27.00;97.00
40638;DHT22;26336;44.696;10.622;2023-08-21T06:45:57;27.00;97.10
40638;DHT22;26336;44.696;10.622;2023-08-21T06:49:01;27.10;97.10
40638;DHT22;26336;44.696;10.622;2023-08-21T06:52:05;27.10;97.20
40638;DHT22;26336;44.696;10.622;2023-08-21T06:55:09;27.10;97.10
40638;DHT22;26336;44.696;10.622;2023-08-21T06:58:13;27.10;97.10
40638;DHT22;26336;44.696;10.622;2023-08-21T07:01:17;27.20;97.10
40638;DHT22;26336;44.696;10.622;2023-08-21T07:04:22;27.20;97.20
40638;DHT22;26336;44.696;10.622;2023-08-21T07:07:26;27.30;97.30
40638;DHT22;26336;44.696;10.622;2023-08-21T07:10:29;27.30;97.10
40638;DHT22;26336;44.696;10.622;2023-08-21T07:13:35;27.30;97.30
40638;DHT22;26336;44.696;10.622;2023-08-21T07:16:39;27.30;96.80
40638;DHT22;26336;44.696;10.622;2023-08-21T07:19:43;27.40;96.80
40638;DHT22;26336;44.696;10.622;2023-08-21T07:22:49;27.50;96.90
40638;DHT22;26336;44.696;10.622;2023-08-21T07:25:53;27.50;97.20
40638;DHT22;26336;44.696;10.622;2023-08-21T07:29:01;27.60;97.30
40638;DHT22;26336;44.696;10.622;2023-08-21T07:32:08;27.60;97.00
40638;DHT22;26336;44.696;10.622;2023-08-21T07:35:12;27.70;97.00
40638;DHT22;26336;44.696;10.622;2023-08-21T07:38:16;27.80;96.60
40638;DHT22;26336;44.696;10.622;2023-08-21T07:41:20;27.90;96.50
40638;DHT22;26336;44.696;10.622;2023-08-21T07:44:23;27.90;96.10
40638;DHT22;26336;44.696;10.622;2023-08-21T07:47:28;28.00;95.90
40638;DHT22;26336;44.696;10.622;2023-08-21T07:50:58;28.00;95.70
40638;DHT22;26336;44.696;10.622;2023-08-21T07:54:08;28.10;95.70
40638;DHT22;26336;44.696;10.622;2023-08-21T07:57:12;28.20;95.60
40638;DHT22;26336;44.696;10.622;2023-08-21T08:00:17;28.20;95.40
40638;DHT22;26336;44.696;10.622;2023-08-21T08:03:24;28.20;95.40
40638;DHT22;26336;44.696;10.622;2023-08-21T08:06:29;28.30;95.50
40638;DHT22;26336;44.696;10.622;2023-08-21T08:09:33;28.40;95.40
40638;DHT22;26336;44.696;10.622;2023-08-21T08:12:37;28.40;95.00
40638;DHT22;26336;44.696;10.622;2023-08-21T08:15:47;28.50;95.00
40638;DHT22;26336;44.696;10.622;2023-08-21T08:18:52;28.60;94.70
40638;DHT22;26336;44.696;10.622;2023-08-21T08:21:56;28.70;94.70
40638;DHT22;26336;44.696;10.622;2023-08-21T08:25:00;28.70;94.40
40638;DHT22;26336;44.696;10.622;2023-08-21T08:28:05;28.70;94.10
40638;DHT22;26336;44.696;10.622;2023-08-21T08:31:17;28.80;94.00
40638;DHT22;26336;44.696;10.622;2023-08-21T08:34:24;28.90;94.00
40638;DHT22;26336;44.696;10.622;2023-08-21T08:37:32;29.00;93.60
40638;DHT22;26336;44.696;10.622;2023-08-21T08:40:44;29.00;93.90
40638;DHT22;26336;44.696;10.622;2023-08-21T08:43:49;29.10;93.80
40638;DHT22;26336;44.696;10.622;2023-08-21T08:46:54;29.20;93.40
40638;DHT22;26336;44.696;10.622;2023-08-21T08:50:04;29.30;93.00
40638;DHT22;26336;44.696;10.622;2023-08-21T08:53:09;29.30;92.60
40638;DHT22;26336;44.696;10.622;2023-08-21T08:56:14;29.40;92.80
40638;DHT22;26336;44.696;10.622;2023-08-21T08:59:19;29.50;93.00
40638;DHT22;26336;44.696;10.622;2023-08-21T09:02:27;29.60;92.10
40638;DHT22;26336;44.696;10.622;2023-08-21T09:05:33;29.80;91.90
40638;DHT22;26336;44.696;10.622;2023-08-21T09:08:37;29.80;92.00
40638;DHT22;26336;44.696;10.622;2023-08-21T09:11:44;29.90;92.00
40638;DHT22;26336;44.696;10.622;2023-08-21T09:14:49;30.00;91.90
40638;DHT22;26336;44.696;10.622;2023-08-21T09:17:54;30.10;92.20
40638;DHT22;26336;44.696;10.622;2023-08-21T09:21:07;30.10;91.90
40638;DHT22;26336;44.696;10.622;2023-08-21T09:24:12;30.20;91.50
40638;DHT22;26336;44.696;10.622;2023-08-21T09:27:19;30.20;91.00
40638;DHT22;26336;44.696;10.622;2023-08-21T09:30:23;30.30;90.60
40638;DHT22;26336;44.696;10.622;2023-08-21T09:33:27;30.40;90.20
40638;DHT22;26336;44.696;10.622;2023-08-21T09:36:33;30.50;90.30
40638;DHT22;26336;44.696;10.622;2023-08-21T09:39:37;30.50;90.40
40638;DHT22;26336;44.696;10.622;2023-08-21T09:42:42;30.70;90.10
40638;DHT22;26336;44.696;10.622;2023-08-21T09:45:51;30.90;89.00
40638;DHT22;26336;44.696;10.622;2023-08-21T09:49:12;31.10;87.90
40638;DHT22;26336;44.696;10.622;2023-08-21T09:52:26;31.10;90.00
40638;DHT22;26336;44.696;10.622;2023-08-21T09:56:20;31.10;88.90
40638;DHT22;26336;44.696;10.622;2023-08-21T09:59:36;31.10;88.60
40638;DHT22;26336;44.696;10.622;2023-08-21T10:02:50;31.20;88.60
40638;DHT22;26336;44.696;10.622;2023-08-21T10:06:09;31.40;87.90
40638;DHT22;26336;44.696;10.622;2023-08-21T10:09:14;31.40;87.50
40638;DHT22;26336;44.696;10.622;2023-08-21T10:12:32;31.40;87.70
40638;DHT22;26336;44.696;10.622;2023-08-21T10:15:40;31.50;87.60
40638;DHT22;26336;44.696;10.622;2023-08-21T10:18:45;31.50;87.20
40638;DHT22;26336;44.696;10.622;2023-08-21T10:21:50;31.60;87.50
40638;DHT22;26336;44.696;10.622;2023-08-21T10:24:59;31.60;85.90
40638;DHT22;26336;44.696;10.622;2023-08-21T10:28:03;31.60;86.50
40638;DHT22;26336;44.696;10.622;2023-08-21T10:31:30;31.70;86.50
40638;DHT22;26336;44.696;10.622;2023-08-21T10:34:51;31.80;86.10
40638;DHT22;26336;44.696;10.622;2023-08-21T10:38:15;31.80;85.80
40638;DHT22;26336;44.696;10.622;2023-08-21T10:41:26;31.90;86.00
40638;DHT22;26336;44.696;10.622;2023-08-21T10:47:52;31.90;86.80
40638;DHT22;26336;44.696;10.622;2023-08-21T10:51:04;31.90;86.80
40638;DHT22;26336;44.696;10.622;2023-08-21T10:54:18;32.00;86.50
40638;DHT22;26336;44.696;10.622;2023-08-21T10:57:28;32.00;86.40
40638;DHT22;26336;44.696;10.622;2023-08-21T11:00:35;32.00;86.40
40638;DHT22;26336;44.696;10.622;2023-08-21T11:03:40;32.00;87.20
40638;DHT22;26336;44.696;10.622;2023-08-21T11:06:51;32.10;87.00
40638;DHT22;26336;44.696;10.622;2023-08-21T11:09:56;32.20;86.40
40638;DHT22;26336;44.696;10.622;2023-08-21T11:13:01;32.20;85.60
40638;DHT22;26336;44.696;10.622;2023-08-21T11:16:06;32.30;86.90
40638;DHT22;26336;44.696;10.622;2023-08-21T11:19:12;32.40;85.70
40638;DHT22;26336;44.696;10.622;2023-08-21T11:22:17;32.40;85.70
40638;DHT22;26336;44.696;10.622;2023-08-21T11:25:21;32.40;85.10
40638;DHT22;26336;44.696;10.622;2023-08-21T11:28:26;32.40;85.60
40638;DHT22;26336;44.696;10.622;2023-08-21T11:31:30;32.50;86.00
40638;DHT22;26336;44.696;10.622;2023-08-21T11:34:35;32.50;86.70
40638;DHT22;26336;44.696;10.622;2023-08-21T11:37:44;32.40;85.80
40638;DHT22;26336;44.696;10.622;2023-08-21T11:40:52;32.60;85.70
40638;DHT22;26336;44.696;10.622;2023-08-21T11:44:02;32.60;86.20
40638;DHT22;26336;44.696;10.622;2023-08-21T11:47:07;32.80;85.00
40638;DHT22;26336;44.696;10.622;2023-08-21T11:50:14;32.80;84.30
40638;DHT22;26336;44.696;10.622;2023-08-21T11:53:32;32.90;83.10
40638;DHT22;26336;44.696;10.622;2023-08-21T11:56:38;32.80;83.50
40638;DHT22;26336;44.696;10.622;2023-08-21T11:59:49;32.90;82.40
40638;DHT22;26336;44.696;10.622;2023-08-21T12:03:00;32.90;82.40
40638;DHT22;26336;44.696;10.622;2023-08-21T12:06:11;32.90;83.30
40638;DHT22;26336;44.696;10.622;2023-08-21T12:09:16;33.00;82.60
40638;DHT22;26336;44.696;10.622;2023-08-21T12:12:23;32.90;84.20
40638;DHT22;26336;44.696;10.622;2023-08-21T12:15:28;32.70;84.80
40638;DHT22;26336;44.696;10.622;2023-08-21T12:18:32;32.90;85.00
40638;DHT22;26336;44.696;10.622;2023-08-21T12:21:39;32.90;83.80
40638;DHT22;26336;44.696;10.622;2023-08-21T12:24:42;32.90;83.40
40638;DHT22;26336;44.696;10.622;2023-08-21T12:27:47;33.00;83.60
40638;DHT22;26336;44.696;10.622;2023-08-21T12:30:51;33.10;83.70
40638;DHT22;26336;44.696;10.622;2023-08-21T12:33:58;33.10;84.00
40638;DHT22;26336;44.696;10.622;2023-08-21T12:37:03;33.10;84.70
40638;DHT22;26336;44.696;10.622;2023-08-21T12:40:07;32.90;85.00
40638;DHT22;26336;44.696;10.622;2023-08-21T12:43:12;32.80;83.90
40638;DHT22;26336;44.696;10.622;2023-08-21T12:46:16;32.80;84.50
40638;DHT22;26336;44.696;10.622;2023-08-21T12:49:20;32.80;84.50
40638;DHT22;26336;44.696;10.622;2023-08-21T12:52:25;32.80;84.00
40638;DHT22;26336;44.696;10.622;2023-08-21T12:55:29;32.80;84.30
40638;DHT22;26336;44.696;10.622;2023-08-21T12:58:34;32.90;84.60
40638;DHT22;26336;44.696;10.622;2023-08-21T13:01:38;32.90;84.00
40638;DHT22;26336;44.696;10.622;2023-08-21T13:04:42;33.00;84.20
40638;DHT22;26336;44.696;10.622;2023-08-21T13:07:49;33.00;84.60
40638;DHT22;26336;44.696;10.622;2023-08-21T13:10:53;33.10;83.50
40638;DHT22;26336;44.696;10.622;2023-08-21T13:13:57;33.00;84.30
40638;DHT22;26336;44.696;10.622;2023-08-21T13:17:01;33.10;84.80
40638;DHT22;26336;44.696;10.622;2023-08-21T13:20:06;33.10;84.90
40638;DHT22;26336;44.696;10.622;2023-08-21T13:23:13;33.10;84.10
40638;DHT22;26336;44.696;10.622;2023-08-21T13:26:17;33.20;84.20
40638;DHT22;26336;44.696;10.622;2023-08-21T13:29:21;33.20;84.10
40638;DHT22;26336;44.696;10.622;2023-08-21T13:32:25;33.10;84.40
40638;DHT22;26336;44.696;10.622;2023-08-21T13:35:29;33.10;84.20
40638;DHT22;26336;44.696;10.622;2023-08-21T13:38:33;33.00;84.00
40638;DHT22;26336;44.696;10.622;2023-08-21T13:41:37;32.90;84.70
40638;DHT22;26336;44.696;10.622;2023-08-21T13:45:08;32.80;85.00
40638;DHT22;26336;44.696;10.622;2023-08-21T13:48:12;33.10;83.30
40638;DHT22;26336;44.696;10.622;2023-08-21T13:51:40;33.20;83.30
40638;DHT22;26336;44.696;10.622;2023-08-21T13:54:47;33.20;82.80
40638;DHT22;26336;44.696;10.622;2023-08-21T13:58:11;33.20;83.60
40638;DHT22;26336;44.696;10.622;2023-08-21T14:01:15;33.30;83.00
40638;DHT22;26336;44.696;10.622;2023-08-21T14:04:23;33.30;83.40
40638;DHT22;26336;44.696;10.622;2023-08-21T14:07:57;33.30;83.30
40638;DHT22;26336;44.696;10.622;2023-08-21T14:11:01;33.10;83.50
40638;DHT22;26336;44.696;10.622;2023-08-21T14:14:05;32.90;83.80
40638;DHT22;26336;44.696;10.622;2023-08-21T14:17:09;32.90;83.90
40638;DHT22;26336;44.696;10.622;2023-08-21T14:20:18;33.10;83.40
40638;DHT22;26336;44.696;10.622;2023-08-21T14:23:25;33.20;83.40
40638;DHT22;26336;44.696;10.622;2023-08-21T14:26:29;33.20;84.00
40638;DHT22;26336;44.696;10.622;2023-08-21T14:29:41;33.20;83.50
40638;DHT22;26336;44.696;10.622;2023-08-21T14:33:38;33.20;83.40
40638;DHT22;26336;44.696;10.622;2023-08-21T14:36:53;33.30;83.30
40638;DHT22;26336;44.696;10.622;2023-08-21T14:40:09;33.40;82.00
40638;DHT22;26336;44.696;10.622;2023-08-21T14:43:19;33.50;82.10
40638;DHT22;26336;44.696;10.622;2023-08-21T14:46:26;33.40;82.60
40638;DHT22;26336;44.696;10.622;2023-08-21T14:49:39;33.40;81.70
40638;DHT22;26336;44.696;10.622;2023-08-21T14:52:44;33.30;82.60
40638;DHT22;26336;44.696;10.622;2023-08-21T14:56:21;33.10;83.30
40638;DHT22;26336;44.696;10.622;2023-08-21T14:59:28;32.90;83.60
40638;DHT22;26336;44.696;10.622;2023-08-21T15:02:44;33.10;83.50
40638;DHT22;26336;44.696;10.622;2023-08-21T15:05:48;33.10;83.70
40638;DHT22;26336;44.696;10.622;2023-08-21T15:08:52;33.20;82.90
40638;DHT22;26336;44.696;10.622;2023-08-21T15:12:17;33.20;83.00
40638;DHT22;26336;44.696;10.622;2023-08-21T15:15:22;33.20;83.20
40638;DHT22;26336;44.696;10.622;2023-08-21T15:18:31;33.10;83.80
40638;DHT22;26336;44.696;10.622;2023-08-21T15:21:36;33.30;83.20
40638;DHT22;26336;44.696;10.622;2023-08-21T15:24:40;33.40;82.90
40638;DHT22;26336;44.696;10.622;2023-08-21T15:27:43;33.40;82.90
40638;DHT22;26336;44.696;10.622;2023-08-21T15:31:14;33.30;82.60
40638;DHT22;26336;44.696;10.622;2023-08-21T15:34:19;33.20;83.10
40638;DHT22;26336;44.696;10.622;2023-08-21T15:37:22;33.30;83.10
40638;DHT22;26336;44.696;10.622;2023-08-21T15:40:27;33.20;82.80
40638;DHT22;26336;44.696;10.622;2023-08-21T15:43:32;33.10;82.60
40638;DHT22;26336;44.696;10.622;2023-08-21T15:46:39;33.20;82.10
40638;DHT22;26336;44.696;10.622;2023-08-21T15:49:43;33.30;82.50
40638;DHT22;26336;44.696;10.622;2023-08-21T15:52:54;33.30;83.00
40638;DHT22;26336;44.696;10.622;2023-08-21T15:56:08;33.20;82.90
40638;DHT22;26336;44.696;10.622;2023-08-21T15:59:25;33.30;82.20
40638;DHT22;26336;44.696;10.622;2023-08-21T16:02:31;33.20;82.90
40638;DHT22;26336;44.696;10.622;2023-08-21T16:05:36;33.10;82.80
40638;DHT22;26336;44.696;10.622;2023-08-21T16:08:40;33.10;83.00
40638;DHT22;26336;44.696;10.622;2023-08-21T16:11:56;33.10;82.30
40638;DHT22;26336;44.696;10.622;2023-08-21T16:15:00;33.20;82.30
40638;DHT22;26336;44.696;10.622;2023-08-21T16:18:31;33.20;82.40
40638;DHT22;26336;44.696;10.622;2023-08-21T16:21:39;33.10;82.80
40638;DHT22;26336;44.696;10.622;2023-08-21T16:24:53;33.10;82.30
40638;DHT22;26336;44.696;10.622;2023-08-21T16:27:59;33.10;82.40
40638;DHT22;26336;44.696;10.622;2023-08-21T16:31:16;33.10;82.40
40638;DHT22;26336;44.696;10.622;2023-08-21T16:34:25;33.10;82.40
40638;DHT22;26336;44.696;10.622;2023-08-21T16:37:33;33.10;81.90
40638;DHT22;26336;44.696;10.622;2023-08-21T16:40:38;33.10;81.80
40638;DHT22;26336;44.696;10.622;2023-08-21T16:43:42;33.10;81.50
40638;DHT22;26336;44.696;10.622;2023-08-21T16:46:48;33.10;81.60
40638;DHT22;26336;44.696;10.622;2023-08-21T16:50:27;33.00;81.40
40638;DHT22;26336;44.696;10.622;2023-08-21T16:53:39;33.00;82.20
40638;DHT22;26336;44.696;10.622;2023-08-21T16:57:33;33.00;82.20
40638;DHT22;26336;44.696;10.622;2023-08-21T17:00:41;33.00;81.60
40638;DHT22;26336;44.696;10.622;2023-08-21T17:03:47;32.90;82.40
40638;DHT22;26336;44.696;10.622;2023-08-21T17:06:52;32.80;82.20
40638;DHT22;26336;44.696;10.622;2023-08-21T17:09:56;32.80;82.30
40638;DHT22;26336;44.696;10.622;2023-08-21T17:13:00;32.80;82.30
40638;DHT22;26336;44.696;10.622;2023-08-21T17:16:05;32.80;82.70
40638;DHT22;26336;44.696;10.622;2023-08-21T17:19:09;32.80;82.40
40638;DHT22;26336;44.696;10.622;2023-08-21T17:22:20;32.80;83.10
40638;DHT22;26336;44.696;10.622;2023-08-21T17:25:29;32.70;82.70
40638;DHT22;26336;44.696;10.622;2023-08-21T17:29:04;32.70;83.10
40638;DHT22;26336;44.696;10.622;2023-08-21T17:32:17;32.70;83.30
40638;DHT22;26336;44.696;10.622;2023-08-21T17:39:47;32.50;83.80
40638;DHT22;26336;44.696;10.622;2023-08-21T17:42:51;32.40;83.40
40638;DHT22;26336;44.696;10.622;2023-08-21T17:45:55;32.40;84.00
40638;DHT22;26336;44.696;10.622;2023-08-21T17:49:01;32.40;84.20
40638;DHT22;26336;44.696;10.622;2023-08-21T17:52:05;32.30;84.30
40638;DHT22;26336;44.696;10.622;2023-08-21T17:55:11;32.30;83.80
40638;DHT22;26336;44.696;10.622;2023-08-21T17:58:15;32.30;84.10
40638;DHT22;26336;44.696;10.622;2023-08-21T18:01:23;32.30;85.10
40638;DHT22;26336;44.696;10.622;2023-08-21T18:04:29;32.20;85.40
40638;DHT22;26336;44.696;10.622;2023-08-21T18:07:39;32.10;85.60
40638;DHT22;26336;44.696;10.622;2023-08-21T18:10:44;32.10;85.00
40638;DHT22;26336;44.696;10.622;2023-08-21T18:13:48;32.10;85.40
40638;DHT22;26336;44.696;10.622;2023-08-21T18:16:59;32.00;85.50
40638;DHT22;26336;44.696;10.622;2023-08-21T18:20:08;31.90;86.10
40638;DHT22;26336;44.696;10.622;2023-08-21T18:23:13;31.90;86.80
40638;DHT22;26336;44.696;10.622;2023-08-21T18:26:17;31.80;87.00
40638;DHT22;26336;44.696;10.622;2023-08-21T18:29:25;31.80;87.40
40638;DHT22;26336;44.696;10.622;2023-08-21T18:32:29;31.70;87.50
40638;DHT22;26336;44.696;10.622;2023-08-21T18:35:33;31.70;87.90
40638;DHT22;26336;44.696;10.622;2023-08-21T18:38:37;31.70;88.30
40638;DHT22;26336;44.696;10.622;2023-08-21T18:41:41;31.60;88.20
40638;DHT22;26336;44.696;10.622;2023-08-21T18:44:46;31.50;88.70
40638;DHT22;26336;44.696;10.622;2023-08-21T18:47:50;31.50;88.50
40638;DHT22;26336;44.696;10.622;2023-08-21T18:50:54;31.40;88.90
40638;DHT22;26336;44.696;10.622;2023-08-21T18:53:58;31.40;89.00
40638;DHT22;26336;44.696;10.622;2023-08-21T18:57:02;31.30;89.40
40638;DHT22;26336;44.696;10.622;2023-08-21T19:00:07;31.30;89.70
40638;DHT22;26336;44.696;10.622;2023-08-21T19:03:15;31.30;89.90
40638;DHT22;26336;44.696;10.622;2023-08-21T19:06:22;31.30;89.90
40638;DHT22;26336;44.696;10.622;2023-08-21T19:09:29;31.30;90.20
40638;DHT22;26336;44.696;10.622;2023-08-21T19:12:33;31.20;90.20
40638;DHT22;26336;44.696;10.622;2023-08-21T19:15:41;31.20;90.30
40638;DHT22;26336;44.696;10.622;2023-08-21T19:18:46;31.20;90.40
40638;DHT22;26336;44.696;10.622;2023-08-21T19:21:50;31.20;90.50
40638;DHT22;26336;44.696;10.622;2023-08-21T19:25:06;31.10;90.40
40638;DHT22;26336;44.696;10.622;2023-08-21T19:28:13;31.10;90.20
40638;DHT22;26336;44.696;10.622;2023-08-21T19:31:20;31.10;90.20
40638;DHT22;26336;44.696;10.622;2023-08-21T19:34:24;31.10;90.20
40638;DHT22;26336;44.696;10.622;2023-08-21T19:37:31;31.00;90.20